Time;durP1;ratioP1;P1;durP2;ratioP2;P2;SDS_P1;SDS_P2;PMS_P1;PMS_P2;Temp;Humidity;BMP_temperature;BMP_pressure;BME280_temperature;BME280_humidity;BME280_pressure;Samples;Min_cycle;Max_cycle;Signal;HPM_P1;HPM_P2
2022/11/15 00:00:18;;;;;;;11.07;9.70;;;11.00;96.20;;;;;;5095032;28;20431;-67
2022/11/15 00:02:46;;;;;;;11.97;10.70;;;11.00;96.10;;;;;;5094836;28;20508;-67
2022/11/15 00:05:13;;;;;;;13.20;10.97;;;11.00;96.10;;;;;;5094853;28;20486;-67
2022/11/15 00:07:39;;;;;;;12.70;10.63;;;11.00;96.10;;;;;;5094554;28;20929;-67
2022/11/15 00:10:07;;;;;;;11.70;10.43;;;11.00;96.20;;;;;;5094339;28;20451;-67
2022/11/15 00:12:34;;;;;;;12.27;11.07;;;11.00;96.10;;;;;;5095074;28;20472;-67
2022/11/15 00:15:00;;;;;;;13.30;10.27;;;11.00;96.10;;;;;;5094323;28;20789;-67
2022/11/15 00:17:27;;;;;;;11.27;10.07;;;11.00;96.10;;;;;;5094647;28;20439;-67
2022/11/15 00:19:55;;;;;;;9.97;8.70;;;11.10;96.20;;;;;;5094342;28;20807;-67
2022/11/15 00:22:22;;;;;;;12.43;11.13;;;11.10;96.20;;;;;;5094387;28;20475;-67
2022/11/15 00:24:49;;;;;;;11.13;9.97;;;11.10;96.30;;;;;;5094470;28;20476;-67
2022/11/15 00:27:15;;;;;;;12.40;10.10;;;11.10;96.30;;;;;;5094233;28;20455;-67
2022/11/15 00:29:43;;;;;;;12.63;10.50;;;11.10;96.30;;;;;;5094514;28;20456;-67
2022/11/15 00:32:10;;;;;;;12.80;9.00;;;11.10;96.20;;;;;;5094062;28;20846;-67
2022/11/15 00:34:37;;;;;;;10.90;9.50;;;11.10;96.30;;;;;;5094430;28;20447;-67
2022/11/15 00:37:06;;;;;;;13.53;11.20;;;11.20;96.40;;;;;;5093937;28;20455;-67
2022/11/15 00:39:33;;;;;;;11.43;10.10;;;11.20;96.40;;;;;;5094331;28;20444;-67
2022/11/15 00:42:00;;;;;;;13.50;10.50;;;11.20;96.50;;;;;;5093972;28;20968;-67
2022/11/15 00:44:26;;;;;;;10.67;9.57;;;11.20;96.60;;;;;;5094287;28;20480;-67
2022/11/15 00:46:53;;;;;;;14.00;10.10;;;11.20;96.80;;;;;;5096124;28;20515;-67
2022/11/15 00:49:20;;;;;;;16.00;10.43;;;11.20;96.90;;;;;;5096091;28;20830;-66
2022/11/15 00:51:46;;;;;;;13.20;11.80;;;11.20;97.00;;;;;;5096354;28;20460;-66
2022/11/15 00:54:14;;;;;;;13.70;10.87;;;11.30;97.20;;;;;;5094186;28;20901;-67
2022/11/15 00:56:41;;;;;;;10.63;9.40;;;11.30;97.30;;;;;;5094208;28;20444;-67
2022/11/15 00:59:08;;;;;;;11.13;9.93;;;11.30;97.50;;;;;;5094056;28;20959;-67
2022/11/15 01:01:35;;;;;;;12.47;10.60;;;11.30;97.50;;;;;;5094164;28;20451;-67
2022/11/15 01:04:01;;;;;;;10.93;9.80;;;11.30;97.60;;;;;;5093636;28;20998;-67
2022/11/15 01:06:28;;;;;;;10.83;9.60;;;11.40;97.70;;;;;;5093779;28;20510;-67
2022/11/15 01:08:55;;;;;;;15.90;13.60;;;11.40;97.80;;;;;;5093535;28;20940;-67
2022/11/15 01:11:23;;;;;;;12.93;10.50;;;11.40;97.80;;;;;;5093928;28;20448;-67
2022/11/15 01:13:50;;;;;;;11.63;9.13;;;11.40;97.70;;;;;;5093646;28;20460;-67
2022/11/15 01:16:19;;;;;;;10.83;9.60;;;11.40;97.70;;;;;;5093414;28;20988;-67
2022/11/15 01:18:46;;;;;;;10.67;9.40;;;11.40;97.60;;;;;;5093561;28;20462;-67
2022/11/15 01:21:15;;;;;;;10.43;8.67;;;11.40;97.40;;;;;;5093707;28;20449;-67
2022/11/15 01:23:42;;;;;;;13.97;9.67;;;11.40;97.30;;;;;;5093025;28;20467;-67
2022/11/15 01:26:12;;;;;;;10.83;9.37;;;11.40;97.30;;;;;;5093674;28;20477;-67
2022/11/15 01:28:42;;;;;;;11.90;10.60;;;11.40;97.30;;;;;;5094348;28;20906;-67
2022/11/15 01:31:12;;;;;;;11.57;10.00;;;11.40;97.30;;;;;;5095748;28;20446;-67
2022/11/15 01:33:39;;;;;;;10.17;9.23;;;11.40;97.40;;;;;;5093958;28;20854;-67
2022/11/15 01:36:07;;;;;;;10.87;9.50;;;11.40;97.40;;;;;;5093912;28;20458;-67
2022/11/15 01:38:33;;;;;;;9.60;8.27;;;11.40;97.60;;;;;;5093998;28;20808;-67
2022/11/15 01:41:00;;;;;;;11.90;9.50;;;11.40;97.90;;;;;;5093950;28;20454;-67
2022/11/15 01:43:29;;;;;;;13.93;9.07;;;11.40;98.10;;;;;;5093909;28;21009;-67
2022/11/15 01:46:02;;;;;;;10.90;9.80;;;11.50;98.30;;;;;;5093829;28;20487;-68
2022/11/15 01:48:34;;;;;;;10.53;8.67;;;11.50;98.30;;;;;;5093783;28;20450;-67
2022/11/15 01:51:03;;;;;;;10.07;8.90;;;11.50;98.30;;;;;;5093445;28;20442;-67
2022/11/15 01:53:32;;;;;;;10.90;9.30;;;11.50;98.20;;;;;;5093213;28;20482;-67
2022/11/15 01:55:59;;;;;;;11.53;10.00;;;11.50;98.10;;;;;;5093313;28;20588;-67
2022/11/15 01:58:26;;;;;;;12.03;8.80;;;11.50;98.00;;;;;;5093280;28;20449;-67
2022/11/15 02:00:53;;;;;;;10.93;8.93;;;11.50;97.90;;;;;;5093161;28;20451;-67
2022/11/15 02:03:27;;;;;;;10.67;9.33;;;11.50;97.70;;;;;;5093052;28;20467;-67
2022/11/15 02:05:54;;;;;;;12.50;8.50;;;11.50;97.50;;;;;;5092841;28;20501;-67
2022/11/15 02:08:21;;;;;;;9.17;8.27;;;11.50;97.30;;;;;;5093182;28;20451;-67
2022/11/15 02:10:48;;;;;;;11.63;9.27;;;11.40;97.00;;;;;;5092992;28;20446;-67
2022/11/15 02:13:15;;;;;;;11.17;8.90;;;11.40;96.80;;;;;;5092720;28;20843;-67
2022/11/15 02:15:53;;;;;;;11.47;8.43;;;11.40;96.60;;;;;;5093121;28;20458;-67
2022/11/15 02:18:27;;;;;;;11.50;9.30;;;11.30;96.40;;;;;;5093158;28;20433;-67
2022/11/15 02:21:08;;;;;;;10.80;9.40;;;11.30;96.40;;;;;;5093075;28;20442;-67
2022/11/15 02:24:08;;;;;;;10.97;8.47;;;11.30;96.40;;;;;;5092866;28;20845;-67
2022/11/15 02:27:18;;;;;;;10.33;8.50;;;11.30;96.40;;;;;;5092991;28;20470;-67
2022/11/15 02:30:14;;;;;;;10.57;9.37;;;11.30;96.60;;;;;;5092975;28;20458;-67
2022/11/15 02:32:47;;;;;;;12.07;10.47;;;11.30;96.70;;;;;;5092941;28;20471;-67
2022/11/15 02:35:22;;;;;;;10.80;9.70;;;11.30;96.80;;;;;;5096374;28;20454;-67
2022/11/15 02:37:56;;;;;;;11.03;9.80;;;11.30;97.00;;;;;;5096165;28;20458;-67
2022/11/15 02:40:34;;;;;;;11.10;9.77;;;11.30;97.20;;;;;;5096672;28;20513;-67
2022/11/15 02:46:00;;;;;;;12.00;9.70;;;11.30;97.40;;;;;;5096123;28;20452;-67
2022/11/15 02:48:27;;;;;;;11.57;9.83;;;11.30;97.40;;;;;;5096474;28;20430;-67
2022/11/15 02:50:54;;;;;;;11.17;8.67;;;11.30;97.40;;;;;;5096189;28;20458;-67
2022/11/15 02:53:25;;;;;;;11.83;9.83;;;11.40;97.60;;;;;;5096162;28;20835;-67
2022/11/15 02:55:53;;;;;;;11.57;9.43;;;11.40;97.60;;;;;;5095943;28;20908;-67
2022/11/15 02:58:50;;;;;;;10.87;8.90;;;11.40;97.80;;;;;;5096250;28;20457;-67
2022/11/15 03:01:30;;;;;;;9.57;8.40;;;11.40;97.90;;;;;;5095787;28;20918;-67
2022/11/15 03:04:05;;;;;;;11.93;8.53;;;11.40;98.10;;;;;;5095792;28;20841;-67
2022/11/15 03:06:40;;;;;;;10.37;9.30;;;11.40;98.20;;;;;;5095425;28;20463;-67
2022/11/15 03:09:11;;;;;;;8.23;7.40;;;11.50;98.20;;;;;;5096024;28;20442;-67
2022/11/15 03:11:45;;;;;;;11.00;8.67;;;11.50;98.80;;;;;;5095920;28;20427;-67
2022/11/15 03:14:21;;;;;;;9.23;8.23;;;11.60;99.80;;;;;;5096268;28;20433;-67
2022/11/15 03:16:59;;;;;;;8.30;7.20;;;11.70;99.90;;;;;;5095729;28;20438;-67
2022/11/15 03:19:33;;;;;;;8.20;7.37;;;11.80;99.90;;;;;;5095729;28;20427;-67
2022/11/15 03:22:04;;;;;;;9.23;8.20;;;11.80;99.90;;;;;;5095613;28;20450;-67
2022/11/15 03:24:32;;;;;;;13.60;7.47;;;11.80;99.90;;;;;;5095771;28;20431;-67
2022/11/15 03:27:01;;;;;;;12.30;8.67;;;11.90;99.90;;;;;;5098559;28;20479;-67
2022/11/15 03:29:33;;;;;;;7.73;6.90;;;11.90;99.90;;;;;;5097582;28;20819;-67
2022/11/15 03:32:07;;;;;;;8.27;7.30;;;12.00;99.90;;;;;;5095597;28;20431;-67
2022/11/15 03:34:37;;;;;;;10.83;8.70;;;12.10;99.90;;;;;;5095423;28;20430;-67
2022/11/15 03:37:06;;;;;;;8.53;7.47;;;12.10;99.90;;;;;;5095127;28;20448;-67
2022/11/15 03:39:33;;;;;;;8.87;7.23;;;12.20;99.90;;;;;;5095346;28;20837;-67
2022/11/15 03:42:10;;;;;;;11.37;8.70;;;12.20;99.90;;;;;;5095195;28;20447;-67
2022/11/15 03:44:43;;;;;;;7.13;6.27;;;12.20;99.90;;;;;;5094914;28;20447;-67
2022/11/15 03:47:17;;;;;;;10.77;6.43;;;12.30;99.90;;;;;;5094386;28;20966;-67
2022/11/15 03:49:47;;;;;;;7.60;6.90;;;12.30;99.90;;;;;;5095606;28;20432;-67
2022/11/15 03:52:18;;;;;;;8.67;7.80;;;12.40;99.90;;;;;;5094779;28;20990;-67
2022/11/15 03:54:53;;;;;;;7.77;7.00;;;12.40;99.90;;;;;;5096322;28;20463;-67
2022/11/15 03:57:20;;;;;;;6.80;6.20;;;12.40;99.90;;;;;;5097429;28;20439;-67
2022/11/15 03:59:46;;;;;;;7.17;6.57;;;12.50;99.90;;;;;;5096751;28;20448;-68
2022/11/15 04:02:15;;;;;;;6.97;6.27;;;12.50;99.90;;;;;;5096561;28;20840;-67
2022/11/15 04:04:42;;;;;;;7.90;6.50;;;12.50;99.90;;;;;;5096138;28;20804;-67
2022/11/15 04:07:08;;;;;;;8.10;5.73;;;12.50;99.90;;;;;;5095407;28;20475;-68
2022/11/15 04:10:01;;;;;;;6.60;6.00;;;12.50;99.90;;;;;;5096696;28;20826;-68
2022/11/15 04:12:30;;;;;;;7.73;6.93;;;12.60;99.90;;;;;;5098717;28;20502;-68
2022/11/15 04:15:07;;;;;;;8.00;5.17;;;12.60;99.90;;;;;;5097106;28;20431;-68
2022/11/15 04:17:37;;;;;;;4.77;4.30;;;12.60;99.90;;;;;;5096067;28;20431;-68
2022/11/15 04:25:34;;;;;;;6.10;5.00;;;12.70;99.90;;;;;;5094951;28;20463;-68
2022/11/15 04:28:01;;;;;;;4.53;4.13;;;12.80;99.90;;;;;;5094480;28;20460;-68
2022/11/15 04:30:27;;;;;;;5.93;4.40;;;12.80;99.90;;;;;;5094863;28;20454;-68
2022/11/15 04:32:55;;;;;;;5.00;4.50;;;12.80;99.90;;;;;;5094717;28;20475;-68
2022/11/15 04:35:22;;;;;;;4.83;4.37;;;12.80;99.90;;;;;;5094480;28;20440;-68
2022/11/15 04:37:48;;;;;;;4.40;4.00;;;12.90;99.90;;;;;;5094002;28;20451;-68
2022/11/15 04:40:15;;;;;;;5.40;4.90;;;12.90;99.90;;;;;;5094586;28;20447;-68
2022/11/15 04:42:42;;;;;;;8.63;4.87;;;12.90;99.90;;;;;;5094754;28;20237;-68
2022/11/15 04:45:10;;;;;;;6.00;4.77;;;12.90;99.90;;;;;;5094406;28;20439;-68
2022/11/15 04:47:37;;;;;;;5.30;4.80;;;12.90;99.90;;;;;;5094185;28;20480;-68
2022/11/15 04:50:06;;;;;;;4.70;3.83;;;12.90;99.90;;;;;;5094140;28;20448;-68
2022/11/15 04:52:33;;;;;;;5.50;4.10;;;13.00;99.90;;;;;;5094129;28;20460;-68
2022/11/15 04:55:00;;;;;;;5.97;4.00;;;13.00;99.90;;;;;;5094166;28;20443;-68
2022/11/15 04:57:26;;;;;;;5.67;4.47;;;13.00;99.90;;;;;;5093788;28;20440;-68
2022/11/15 04:59:53;;;;;;;3.30;3.10;;;13.00;99.90;;;;;;5093823;28;20951;-68
2022/11/15 05:02:20;;;;;;;4.23;3.83;;;13.00;99.90;;;;;;5094054;28;20467;-68
2022/11/15 05:04:46;;;;;;;3.40;3.10;;;13.00;99.90;;;;;;5094003;28;20801;-68
2022/11/15 05:07:14;;;;;;;4.17;3.50;;;13.10;99.90;;;;;;5094027;28;20475;-68
2022/11/15 05:09:40;;;;;;;3.27;3.03;;;13.10;99.90;;;;;;5093860;28;20217;-68
2022/11/15 05:12:07;;;;;;;3.20;2.90;;;13.10;99.90;;;;;;5093674;28;20467;-68
2022/11/15 05:14:34;;;;;;;2.80;2.60;;;13.10;99.90;;;;;;5093872;28;20451;-68
2022/11/15 05:17:01;;;;;;;3.43;3.13;;;13.10;99.90;;;;;;5093429;28;20967;-68
2022/11/15 05:19:28;;;;;;;4.07;3.10;;;13.10;99.90;;;;;;5093871;28;20451;-68
2022/11/15 05:21:54;;;;;;;3.30;3.00;;;13.20;99.90;;;;;;5093799;28;20423;-68
2022/11/15 05:24:22;;;;;;;3.00;2.80;;;13.20;99.90;;;;;;5093862;28;20451;-68
2022/11/15 05:26:49;;;;;;;5.40;3.70;;;13.20;99.90;;;;;;5093800;28;21008;-68
2022/11/15 05:29:16;;;;;;;3.73;3.43;;;13.20;99.90;;;;;;5093700;28;20451;-68
2022/11/15 05:31:43;;;;;;;2.60;2.47;;;13.20;99.90;;;;;;5093262;28;20977;-68
2022/11/15 05:34:10;;;;;;;4.17;3.40;;;13.20;99.90;;;;;;5093713;28;20432;-68
2022/11/15 05:36:39;;;;;;;3.90;3.17;;;13.20;99.90;;;;;;5093847;28;20455;-68
2022/11/15 05:39:07;;;;;;;6.20;3.57;;;13.20;99.90;;;;;;5093650;28;20458;-68
2022/11/15 05:41:39;;;;;;;3.63;2.90;;;13.20;99.90;;;;;;5093517;28;20466;-68
2022/11/15 05:44:08;;;;;;;5.27;2.97;;;13.20;99.90;;;;;;5093638;28;20438;-68
2022/11/15 05:46:36;;;;;;;5.47;3.00;;;13.30;99.90;;;;;;5093404;28;20482;-69
2022/11/15 05:49:05;;;;;;;5.60;2.97;;;13.20;99.60;;;;;;5093437;28;20795;-68
2022/11/15 05:51:32;;;;;;;7.33;3.23;;;13.30;99.80;;;;;;5093525;28;20432;-68
2022/11/15 05:54:00;;;;;;;5.83;3.27;;;13.30;99.70;;;;;;5093238;28;20463;-68
2022/11/15 05:56:27;;;;;;;4.90;3.43;;;13.20;99.70;;;;;;5093432;28;20431;-68
2022/11/15 05:58:56;;;;;;;5.67;3.30;;;13.20;99.80;;;;;;5093086;28;20946;-68
2022/11/15 06:01:23;;;;;;;3.37;2.20;;;13.20;99.90;;;;;;5093449;28;20432;-68
2022/11/15 06:03:50;;;;;;;3.07;2.77;;;13.20;99.90;;;;;;5093410;28;20473;-68
2022/11/15 06:06:16;;;;;;;3.53;3.20;;;13.20;99.80;;;;;;5093497;28;20471;-68
2022/11/15 06:08:43;;;;;;;2.33;1.97;;;13.20;99.80;;;;;;5095694;28;20440;-68
2022/11/15 06:11:10;;;;;;;3.40;2.00;;;13.20;99.70;;;;;;5097586;28;20432;-68
2022/11/15 06:13:36;;;;;;;2.63;2.20;;;13.20;99.80;;;;;;5097196;28;20471;-68
2022/11/15 06:16:05;;;;;;;2.80;2.43;;;13.20;99.70;;;;;;5097167;28;20447;-68
2022/11/15 06:18:34;;;;;;;2.17;1.97;;;13.20;99.80;;;;;;5097207;28;20438;-68
2022/11/15 06:21:01;;;;;;;2.70;2.50;;;13.20;99.60;;;;;;5096999;28;20444;-68
2022/11/15 06:23:28;;;;;;;4.40;2.50;;;13.20;99.50;;;;;;5096903;28;20468;-68
2022/11/15 06:25:58;;;;;;;6.50;2.13;;;13.20;99.40;;;;;;5097000;28;20428;-68
2022/11/15 06:28:25;;;;;;;4.40;2.00;;;13.20;99.40;;;;;;5096647;28;20443;-68
2022/11/15 06:30:51;;;;;;;4.13;2.60;;;13.20;99.50;;;;;;5096851;28;20443;-68
2022/11/15 06:33:19;;;;;;;2.03;1.80;;;13.20;99.40;;;;;;5096822;28;20471;-68
2022/11/15 06:35:46;;;;;;;2.50;1.73;;;13.20;99.40;;;;;;5096722;28;20526;-69
2022/11/15 06:38:13;;;;;;;2.70;1.77;;;13.20;99.30;;;;;;5096616;28;20972;-68
2022/11/15 06:40:40;;;;;;;1.73;1.60;;;13.20;99.30;;;;;;5096559;28;20447;-68
2022/11/15 06:43:08;;;;;;;1.93;1.40;;;13.20;99.20;;;;;;5096526;28;20463;-68
2022/11/15 06:45:35;;;;;;;1.53;1.43;;;13.20;99.20;;;;;;5096637;28;20460;-68
2022/11/15 06:48:01;;;;;;;2.33;1.67;;;13.20;98.90;;;;;;5096484;28;20515;-68
2022/11/15 06:50:29;;;;;;;3.63;1.80;;;13.20;98.70;;;;;;5096593;28;20444;-68
2022/11/15 06:53:00;;;;;;;1.67;1.30;;;13.20;98.70;;;;;;5096806;28;20990;-68
2022/11/15 06:55:27;;;;;;;1.50;1.33;;;13.20;98.70;;;;;;5096544;28;20432;-68
2022/11/15 06:57:54;;;;;;;1.60;1.40;;;13.20;98.50;;;;;;5096399;28;20443;-68
2022/11/15 07:00:22;;;;;;;5.20;2.10;;;13.20;98.60;;;;;;5096349;28;20447;-68
2022/11/15 07:02:49;;;;;;;3.43;2.00;;;13.20;98.50;;;;;;5097016;28;20471;-68
2022/11/15 07:05:16;;;;;;;2.00;1.80;;;13.20;98.60;;;;;;5096476;28;20439;-68
2022/11/15 07:07:51;;;;;;;1.90;1.70;;;13.20;98.60;;;;;;5096084;28;20485;-68
2022/11/15 07:10:18;;;;;;;2.13;1.70;;;13.20;98.60;;;;;;5096146;28;20434;-68
2022/11/15 07:12:47;;;;;;;3.40;1.57;;;13.20;98.50;;;;;;5096053;28;20456;-68
2022/11/15 07:15:14;;;;;;;4.10;1.30;;;13.20;98.30;;;;;;5095667;28;20446;-68
2022/11/15 07:17:41;;;;;;;3.87;1.60;;;13.10;98.10;;;;;;5095797;28;20435;-68
2022/11/15 07:20:09;;;;;;;3.47;1.57;;;13.20;98.10;;;;;;5095696;28;20451;-68
2022/11/15 07:22:35;;;;;;;1.53;1.33;;;13.10;97.90;;;;;;5095912;28;20471;-68
2022/11/15 07:25:04;;;;;;;0.67;0.67;;;13.20;98.10;;;;;;5095652;28;20475;-68
2022/11/15 07:27:31;;;;;;;2.40;1.13;;;13.00;98.10;;;;;;5095642;28;20522;-68
2022/11/15 07:29:58;;;;;;;1.13;0.93;;;13.00;98.30;;;;;;5095304;28;20927;-68
2022/11/15 07:32:24;;;;;;;2.10;1.00;;;13.00;98.50;;;;;;5095562;28;20847;-68
2022/11/15 07:34:51;;;;;;;2.40;0.67;;;13.00;98.50;;;;;;5095390;28;20455;-68
2022/11/15 07:37:18;;;;;;;1.53;0.90;;;13.00;98.40;;;;;;5095222;28;20470;-68
2022/11/15 07:39:45;;;;;;;1.83;0.80;;;13.00;98.10;;;;;;5095369;28;20818;-68
2022/11/15 07:44:57;;;;;;;1.97;1.60;;;13.00;97.90;;;;;;5095444;28;20403;-68
2022/11/15 07:47:24;;;;;;;2.77;1.40;;;13.00;97.80;;;;;;5095142;28;20491;-68
2022/11/15 07:49:51;;;;;;;3.47;1.73;;;13.00;97.90;;;;;;5095365;28;20839;-68
2022/11/15 07:52:18;;;;;;;3.93;2.20;;;13.10;98.00;;;;;;5095383;28;20525;-68
2022/11/15 07:54:45;;;;;;;5.60;2.63;;;13.10;98.00;;;;;;5095115;28;20489;-68
2022/11/15 07:57:13;;;;;;;4.23;2.30;;;13.10;97.90;;;;;;5095101;28;20444;-68
2022/11/15 07:59:40;;;;;;;5.10;2.33;;;13.10;97.80;;;;;;5095740;28;20448;-68
2022/11/15 08:02:06;;;;;;;5.93;3.60;;;13.10;97.70;;;;;;5095122;28;20467;-68
2022/11/15 08:04:33;;;;;;;3.60;2.60;;;13.20;97.60;;;;;;5094911;28;20456;-68
2022/11/15 08:07:00;;;;;;;3.80;2.13;;;13.20;97.50;;;;;;5094828;28;20562;-68
2022/11/15 08:09:27;;;;;;;4.40;2.20;;;13.20;97.40;;;;;;5094886;28;20443;-68
2022/11/15 08:11:53;;;;;;;4.03;2.40;;;13.20;97.30;;;;;;5095524;28;20462;-68
2022/11/15 08:14:22;;;;;;;7.37;2.93;;;13.30;97.20;;;;;;5076833;28;20778;-68
2022/11/15 08:16:48;;;;;;;3.40;2.50;;;13.30;97.10;;;;;;5094625;28;20463;-68
2022/11/15 08:19:15;;;;;;;5.37;3.30;;;13.30;97.10;;;;;;5094609;28;20436;-68
2022/11/15 08:21:42;;;;;;;6.27;2.53;;;13.30;97.10;;;;;;5094136;28;20455;-68
2022/11/15 08:24:10;;;;;;;6.67;3.23;;;13.40;96.80;;;;;;5094556;28;20440;-68
2022/11/15 08:26:37;;;;;;;8.97;3.83;;;13.50;96.60;;;;;;5094699;28;20475;-68
2022/11/15 08:29:04;;;;;;;7.83;3.07;;;13.60;96.50;;;;;;5094661;28;20814;-68
2022/11/15 08:31:32;;;;;;;7.57;3.10;;;13.70;96.30;;;;;;5093787;28;20440;-68
2022/11/15 08:33:59;;;;;;;7.73;2.50;;;13.70;96.10;;;;;;5094333;28;20464;-68
2022/11/15 08:36:25;;;;;;;4.80;2.63;;;13.80;95.80;;;;;;5093927;28;20962;-68
2022/11/15 08:38:52;;;;;;;6.27;2.63;;;13.80;95.40;;;;;;5094428;28;20455;-68
2022/11/15 08:41:25;;;;;;;8.93;2.47;;;13.90;95.10;;;;;;5094428;28;20447;-68
2022/11/15 08:43:52;;;;;;;6.30;3.00;;;13.90;94.90;;;;;;5094420;28;20471;-68
2022/11/15 08:46:19;;;;;;;5.10;2.67;;;13.90;94.50;;;;;;5094459;28;20428;-68
2022/11/15 08:48:47;;;;;;;2.20;1.60;;;13.90;94.30;;;;;;5093941;28;20557;-68
2022/11/15 08:51:14;;;;;;;3.17;2.00;;;13.90;94.10;;;;;;5095966;28;20446;-68
2022/11/15 08:53:41;;;;;;;3.03;1.70;;;13.80;93.80;;;;;;5099101;28;20460;-68
2022/11/15 08:56:08;;;;;;;2.10;1.80;;;13.90;93.60;;;;;;5102451;28;20459;-68
2022/11/15 08:58:35;;;;;;;2.37;1.60;;;13.90;93.30;;;;;;5107471;28;20439;-68
2022/11/15 09:01:02;;;;;;;3.27;1.63;;;13.90;92.90;;;;;;5110748;28;20449;-69
2022/11/15 09:03:29;;;;;;;2.43;1.10;;;13.90;92.20;;;;;;5109654;28;20462;-69
2022/11/15 09:05:58;;;;;;;4.73;1.10;;;13.90;91.70;;;;;;5105179;28;20955;-69
2022/11/15 09:08:25;;;;;;;2.80;1.30;;;13.90;91.40;;;;;;5100175;28;21016;-69
2022/11/15 09:10:52;;;;;;;2.90;1.40;;;14.00;91.00;;;;;;5095090;28;20443;-69
2022/11/15 09:13:19;;;;;;;1.13;1.00;;;14.00;90.70;;;;;;5093754;28;20994;-69
2022/11/15 09:15:46;;;;;;;4.17;1.27;;;14.00;90.40;;;;;;5094007;28;20444;-69
2022/11/15 09:18:12;;;;;;;1.97;1.67;;;14.10;90.40;;;;;;5093977;28;20450;-69
2022/11/15 09:20:42;;;;;;;4.30;1.00;;;14.20;90.40;;;;;;5093861;28;20451;-69
2022/11/15 09:23:10;;;;;;;2.50;1.67;;;14.20;89.60;;;;;;5093933;28;20477;-69
2022/11/15 09:25:37;;;;;;;1.83;1.50;;;14.20;89.40;;;;;;5094602;28;20451;-69
2022/11/15 09:28:07;;;;;;;2.70;1.80;;;14.20;89.60;;;;;;5093339;28;20970;-69
2022/11/15 09:30:34;;;;;;;4.37;1.43;;;14.30;90.00;;;;;;5094191;28;20456;-69
2022/11/15 09:33:07;;;;;;;3.03;1.30;;;14.30;89.80;;;;;;5093907;28;20478;-69
2022/11/15 09:35:34;;;;;;;3.33;1.60;;;14.40;89.70;;;;;;5097919;28;20424;-69
2022/11/15 09:38:01;;;;;;;2.90;1.47;;;14.40;89.20;;;;;;5093572;28;20970;-69
2022/11/15 09:40:31;;;;;;;1.90;1.60;;;14.40;89.00;;;;;;5093798;28;20432;-69
2022/11/15 09:43:23;;;;;;;2.77;1.63;;;14.40;88.60;;;;;;5093429;28;20475;-69
2022/11/15 09:46:01;;;;;;;1.70;1.20;;;14.40;88.60;;;;;;5097813;28;20489;-69
2022/11/15 09:48:49;;;;;;;3.53;1.47;;;14.40;87.50;;;;;;5097721;28;20499;-69
2022/11/15 09:51:24;;;;;;;2.20;1.10;;;14.40;87.20;;;;;;5097744;28;20420;-69
2022/11/15 09:53:58;;;;;;;1.37;1.07;;;14.40;86.10;;;;;;5098179;28;20962;-69
2022/11/15 09:56:30;;;;;;;0.83;0.70;;;14.50;85.00;;;;;;5097951;28;20450;-69
2022/11/15 09:59:06;;;;;;;1.47;0.93;;;14.50;84.30;;;;;;5097114;28;20911;-70
2022/11/15 10:01:42;;;;;;;2.97;0.97;;;14.50;84.10;;;;;;5097535;28;20432;-69
2022/11/15 10:04:09;;;;;;;1.57;0.87;;;14.60;83.80;;;;;;5097529;28;20423;-69
2022/11/15 10:06:39;;;;;;;2.60;0.93;;;14.60;83.30;;;;;;5097009;28;20973;-69
2022/11/15 10:09:15;;;;;;;3.20;1.00;;;14.60;83.00;;;;;;5097905;28;20472;-69
2022/11/15 10:11:43;;;;;;;2.47;1.00;;;14.70;82.50;;;;;;5097657;28;20504;-69
2022/11/15 10:14:14;;;;;;;2.93;0.90;;;14.80;81.60;;;;;;5097352;28;20452;-69
2022/11/15 10:17:07;;;;;;;2.43;1.50;;;14.90;81.00;;;;;;5097321;28;20431;-69
2022/11/15 10:19:40;;;;;;;3.50;1.13;;;14.90;80.10;;;;;;5058942;28;20851;-69
2022/11/15 10:22:18;;;;;;;1.87;1.33;;;14.90;79.00;;;;;;5097669;28;20459;-69
2022/11/15 10:24:47;;;;;;;4.93;1.13;;;14.90;77.60;;;;;;5097229;28;20438;-69
2022/11/15 10:27:18;;;;;;;5.50;0.80;;;15.00;77.80;;;;;;5097956;28;20490;-69
2022/11/15 10:29:46;;;;;;;1.30;0.77;;;15.00;77.50;;;;;;5097797;28;20428;-69
2022/11/15 10:32:13;;;;;;;3.70;0.93;;;15.10;77.40;;;;;;5097059;28;20471;-69
2022/11/15 10:34:40;;;;;;;5.20;1.00;;;15.20;76.30;;;;;;5097132;28;20459;-69
2022/11/15 10:37:07;;;;;;;1.90;1.10;;;15.30;75.90;;;;;;5095742;28;20844;-69
2022/11/15 10:39:34;;;;;;;2.10;0.70;;;15.40;75.30;;;;;;5095689;28;20451;-69
2022/11/15 10:42:18;;;;;;;1.87;1.10;;;15.60;74.80;;;;;;5095294;28;20471;-69
2022/11/15 10:44:45;;;;;;;2.30;1.00;;;15.90;74.40;;;;;;5095721;28;20436;-70
2022/11/15 10:47:27;;;;;;;3.67;1.50;;;16.10;72.40;;;;;;5095247;28;20966;-70
2022/11/15 10:50:00;;;;;;;5.33;1.10;;;16.40;70.40;;;;;;5095222;28;20824;-70
2022/11/15 10:52:27;;;;;;;2.90;0.67;;;16.80;68.40;;;;;;5095213;28;20541;-70
2022/11/15 10:54:58;;;;;;;4.83;0.83;;;17.10;65.40;;;;;;5094913;28;20439;-70
2022/11/15 10:57:29;;;;;;;1.40;1.30;;;17.40;64.30;;;;;;5095441;28;20981;-70
2022/11/15 10:59:59;;;;;;;2.60;1.07;;;17.60;61.20;;;;;;5094943;28;20802;-70
2022/11/15 11:02:36;;;;;;;1.87;1.20;;;17.90;59.70;;;;;;5095367;28;20468;-70
2022/11/15 11:05:04;;;;;;;1.57;0.83;;;18.10;57.20;;;;;;5095261;28;20443;-70
2022/11/15 11:07:32;;;;;;;3.23;1.10;;;18.30;56.50;;;;;;5095764;28;20485;-70
2022/11/15 11:10:02;;;;;;;4.10;1.10;;;18.40;55.40;;;;;;5095105;28;20451;-70
2022/11/15 11:12:32;;;;;;;2.50;1.00;;;18.60;55.60;;;;;;5095380;28;20472;-70
2022/11/15 11:15:02;;;;;;;1.87;0.80;;;18.70;54.50;;;;;;5095075;28;20452;-70
2022/11/15 11:17:42;;;;;;;2.80;0.73;;;18.90;54.20;;;;;;5095059;28;20433;-70
2022/11/15 11:20:16;;;;;;;3.43;1.03;;;19.10;53.00;;;;;;5094985;28;20432;-70
2022/11/15 11:22:57;;;;;;;3.93;0.90;;;19.10;52.00;;;;;;5095226;28;20467;-70
2022/11/15 11:25:33;;;;;;;1.47;0.70;;;19.00;52.60;;;;;;5095012;28;20439;-70
2022/11/15 11:28:22;;;;;;;1.57;0.50;;;18.90;52.40;;;;;;5094625;28;20978;-70
2022/11/15 11:31:07;;;;;;;1.47;0.83;;;18.70;51.90;;;;;;5094760;28;20443;-70
2022/11/15 11:33:38;;;;;;;2.80;0.90;;;18.60;51.50;;;;;;5095202;28;20538;-70
2022/11/15 11:36:15;;;;;;;2.50;0.63;;;18.50;51.00;;;;;;5053487;28;1201091;-70
2022/11/15 11:38:53;;;;;;;4.07;1.20;;;18.40;50.40;;;;;;5095952;28;20182;-70
2022/11/15 11:41:39;;;;;;;2.63;0.80;;;18.30;50.10;;;;;;5095443;28;20424;-70
2022/11/15 11:44:17;;;;;;;4.10;1.33;;;18.30;50.40;;;;;;5096382;28;20507;-70
2022/11/15 11:46:50;;;;;;;3.40;1.10;;;18.30;49.70;;;;;;5095796;28;20428;-70
2022/11/15 11:49:22;;;;;;;4.97;1.20;;;18.30;49.80;;;;;;5096255;28;20529;-70
2022/11/15 11:51:55;;;;;;;2.00;0.83;;;18.40;50.20;;;;;;5096270;28;20436;-70
2022/11/15 11:54:27;;;;;;;4.70;1.40;;;18.40;50.20;;;;;;5095768;28;20432;-70
2022/11/15 11:56:58;;;;;;;3.83;1.00;;;18.40;48.80;;;;;;5095969;28;20432;-70
2022/11/15 11:59:33;;;;;;;2.00;0.70;;;18.30;49.00;;;;;;5096125;28;20834;-70
2022/11/15 12:02:10;;;;;;;2.73;0.90;;;18.20;49.10;;;;;;5095721;28;20447;-70
2022/11/15 12:04:40;;;;;;;3.20;1.20;;;18.10;48.40;;;;;;5095082;28;20429;-70
2022/11/15 12:07:14;;;;;;;4.30;1.27;;;18.10;48.90;;;;;;5094484;28;20448;-70
2022/11/15 12:09:45;;;;;;;2.93;1.00;;;18.20;49.10;;;;;;5095111;28;20962;-70
2022/11/15 12:12:18;;;;;;;4.73;1.03;;;18.20;48.70;;;;;;5096144;28;20471;-70
2022/11/15 12:14:50;;;;;;;2.80;1.23;;;18.40;48.30;;;;;;5095527;28;20942;-70
2022/11/15 12:17:22;;;;;;;2.43;1.10;;;18.70;47.80;;;;;;5095879;28;20432;-70
2022/11/15 12:19:49;;;;;;;3.87;1.30;;;19.10;46.70;;;;;;5098083;28;20428;-70
2022/11/15 12:22:21;;;;;;;2.80;1.00;;;19.50;45.60;;;;;;5096578;28;20472;-70
2022/11/15 12:24:57;;;;;;;2.43;0.90;;;19.70;44.90;;;;;;5095151;28;20812;-70
2022/11/15 12:27:33;;;;;;;6.83;2.80;;;19.80;45.00;;;;;;5095333;28;20432;-70
2022/11/15 12:30:04;;;;;;;4.20;2.93;;;19.70;44.90;;;;;;5096462;28;20424;-70
2022/11/15 12:32:35;;;;;;;2.83;1.83;;;19.80;45.20;;;;;;5096881;28;20496;-70
2022/11/15 12:35:04;;;;;;;2.10;0.97;;;20.00;45.70;;;;;;5095997;28;20432;-70
2022/11/15 12:37:47;;;;;;;3.33;0.87;;;19.90;46.10;;;;;;5095203;28;20839;-70
2022/11/15 12:40:32;;;;;;;1.27;0.90;;;19.80;45.50;;;;;;5095766;28;20436;-70
2022/11/15 12:43:02;;;;;;;2.27;1.00;;;19.60;46.40;;;;;;5095927;28;20470;-70
2022/11/15 12:45:32;;;;;;;1.77;1.27;;;19.40;46.70;;;;;;5095810;28;20477;-70
2022/11/15 12:48:57;;;;;;;4.97;1.03;;;19.60;47.70;;;;;;5095425;28;21084;-70
2022/11/15 12:52:08;;;;;;;2.87;1.07;;;19.80;47.60;;;;;;5097019;28;20482;-70
2022/11/15 12:54:58;;;;;;;1.60;0.70;;;19.90;47.90;;;;;;5096793;28;20444;-70
2022/11/15 12:57:39;;;;;;;2.33;1.10;;;19.80;48.10;;;;;;5096578;28;20440;-70
2022/11/15 13:00:44;;;;;;;3.93;1.10;;;19.60;48.70;;;;;;5096422;28;20454;-70
2022/11/15 13:03:25;;;;;;;3.20;1.00;;;19.40;49.20;;;;;;5096108;28;21036;-70
2022/11/15 13:06:05;;;;;;;3.83;2.10;;;19.20;49.80;;;;;;5096702;28;20438;-70
2022/11/15 13:08:57;;;;;;;3.57;2.13;;;18.90;50.40;;;;;;5096494;28;20464;-70
2022/11/15 13:11:50;;;;;;;3.07;1.20;;;18.70;51.20;;;;;;5096927;28;20912;-70